Time;durP1;ratioP1;P1;durP2;ratioP2;P2;SDS_P1;SDS_P2;PMS_P1;PMS_P2;Temp;Humidity;BMP_temperature;BMP_pressure;BME280_temperature;BME280_humidity;BME280_pressure;Samples;Min_cycle;Max_cycle;Signal;HPM_P1;HPM_P2
2021/12/17 00:01:10;;;;;;;27.58;8.68;;;;;;;5.81;80.36;101936.16;2085282;83;33495;-67
2021/12/17 00:04:27;;;;;;;25.65;9.20;;;;;;;5.81;80.32;101938.81;2084974;85;31224;-61
2021/12/17 00:07:16;;;;;;;22.10;8.50;;;;;;;5.79;80.27;101943.28;2081412;85;32964;-64
2021/12/17 00:10:19;;;;;;;20.45;7.37;;;;;;;5.80;80.29;101944.16;2084678;85;30811;-63
2021/12/17 00:13:21;;;;;;;33.38;10.50;;;;;;;5.81;80.25;101948.58;2085099;85;27699;-66
2021/12/17 00:16:27;;;;;;;21.23;7.75;;;;;;;5.80;80.29;101945.02;2084542;85;28708;-60
2021/12/17 00:40:24;;;;;;;25.43;7.95;;;;;;;5.80;80.25;101934.84;2196126;79;30041;-72
2021/12/17 00:49:09;;;;;;;22.93;7.55;;;;;;;5.74;80.07;101936.62;2232281;79;29416;-67
2021/12/17 00:52:10;;;;;;;27.90;7.33;;;;;;;5.73;80.00;101941.96;2228942;79;31468;-63
2021/12/17 00:55:14;;;;;;;24.63;7.17;;;;;;;5.74;80.09;101942.40;2191081;81;33770;-68
2021/12/17 00:58:16;;;;;;;24.80;7.25;;;;;;;5.73;79.99;101944.16;2191198;81;29629;-65
2021/12/17 01:01:20;;;;;;;25.62;8.18;;;;;;;5.74;79.97;101947.26;2191199;81;27684;-67
2021/12/17 01:04:22;;;;;;;38.70;8.27;;;;;;;5.74;79.91;101953.91;2223534;79;29897;-64
2021/12/17 01:07:28;;;;;;;26.02;7.95;;;;;;;5.72;79.92;101953.48;2231956;79;32259;-64
2021/12/17 01:10:47;;;;;;;27.65;9.03;;;;;;;5.73;80.01;101948.61;2232521;79;32590;-71
2021/12/17 01:13:48;;;;;;;41.37;8.93;;;;;;;5.72;79.98;101938.39;2212246;79;29789;-65
2021/12/17 01:16:52;;;;;;;32.28;7.80;;;;;;;5.72;80.00;101958.80;2191292;79;27634;-62
2021/12/17 01:20:20;;;;;;;30.37;8.65;;;;;;;5.72;79.96;101964.12;2191197;81;28809;-66
2021/12/17 01:36:20;;;;;;;25.65;8.13;;;;;;;5.74;80.13;101975.64;2191195;81;30032;-62
2021/12/17 01:42:30;;;;;;;30.40;8.90;;;;;;;5.74;80.12;101949.05;2239247;79;33691;-61
2021/12/17 01:45:37;;;;;;;30.77;8.33;;;;;;;5.74;80.13;101947.72;2238588;79;30834;-62
2021/12/17 01:49:07;;;;;;;39.05;8.68;;;;;;;5.73;80.06;101949.47;2238264;79;27709;-61
2021/12/17 02:02:09;;;;;;;40.48;10.15;;;;;;;5.68;80.09;101935.76;2211196;79;30148;-60
2021/12/17 02:05:13;;;;;;;29.92;7.95;;;;;;;5.67;80.06;101928.23;2197479;81;27676;-60
2021/12/17 02:08:16;;;;;;;28.65;7.20;;;;;;;5.66;80.01;101922.91;2197046;81;28780;-61
2021/12/17 02:12:10;;;;;;;29.07;7.62;;;;;;;5.62;79.92;101917.63;2212103;79;31927;-63
2021/12/17 02:30:53;;;;;;;27.17;7.72;;;;;;;5.57;79.86;101930.04;2117127;82;34188;-60
2021/12/17 02:33:44;;;;;;;27.55;7.75;;;;;;;5.56;79.87;101918.05;2116395;84;30237;-60
2021/12/17 02:36:48;;;;;;;25.60;6.62;;;;;;;5.56;79.91;101920.72;2152905;82;28592;-60
2021/12/17 02:40:08;;;;;;;24.23;7.40;;;;;;;5.57;79.87;101910.09;2112593;83;30169;-60
2021/12/17 02:46:04;;;;;;;19.45;5.78;;;;;;;5.56;79.75;101926.03;2098721;84;33531;-61
2021/12/17 02:49:08;;;;;;;21.57;6.47;;;;;;;5.56;79.75;101937.57;2101922;84;30118;-61
2021/12/17 02:52:11;;;;;;;20.12;5.92;;;;;;;5.57;79.78;101927.38;2119931;83;27719;-60
2021/12/17 02:55:14;;;;;;;22.65;6.67;;;;;;;5.56;79.70;101920.29;2138690;83;28916;-60
2021/12/17 02:58:16;;;;;;;25.45;6.87;;;;;;;5.55;79.74;101925.16;2134168;83;31941;-63
2021/12/17 03:01:18;;;;;;;30.82;7.10;;;;;;;5.57;79.78;101939.34;2139583;83;33651;-60
2021/12/17 03:04:22;;;;;;;18.73;6.50;;;;;;;5.59;79.71;101936.66;2136359;83;30518;-60
2021/12/17 03:07:24;;;;;;;24.75;7.58;;;;;;;5.58;79.69;101941.54;2170673;80;27908;-60
2021/12/17 03:10:26;;;;;;;31.75;7.10;;;;;;;5.57;79.72;101930.46;2183280;81;29938;-63
2021/12/17 03:13:33;;;;;;;28.23;6.80;;;;;;;5.56;79.67;101930.02;2183689;80;28766;-60
2021/12/17 03:16:40;;;;;;;20.62;6.40;;;;;;;5.56;79.68;101927.36;2183515;81;32889;-60
2021/12/17 03:26:23;;;;;;;26.45;6.83;;;;;;;5.57;79.52;101944.66;2183742;81;29302;-60
2021/12/17 03:29:25;;;;;;;27.55;7.45;;;;;;;5.56;79.61;101945.55;2203463;80;31023;-61
2021/12/17 03:32:27;;;;;;;28.23;7.83;;;;;;;5.56;79.44;101951.29;2224649;80;33329;-60
2021/12/17 03:35:29;;;;;;;19.62;5.45;;;;;;;5.55;79.44;101958.39;2224596;80;30753;-62
2021/12/17 03:38:30;;;;;;;29.60;6.95;;;;;;;5.54;79.37;101956.63;2225640;79;27678;-59
2021/12/17 03:41:38;;;;;;;26.93;6.67;;;;;;;5.53;79.43;101953.52;2237300;79;29077;-60
2021/12/17 03:44:41;;;;;;;27.22;8.00;;;;;;;5.54;79.35;101947.78;2197683;79;27703;-60
2021/12/17 03:47:43;;;;;;;22.22;6.60;;;;;;;5.55;79.38;101956.16;2195237;79;32804;-61
2021/12/17 03:50:44;;;;;;;19.45;6.20;;;;;;;5.55;79.19;101959.72;2195464;81;30283;-60
2021/12/17 03:53:53;;;;;;;25.32;8.13;;;;;;;5.55;79.29;101953.50;2195332;81;27679;-59
2021/12/17 03:56:55;;;;;;;20.68;5.80;;;;;;;5.54;79.30;101953.96;2133171;80;28709;-61
2021/12/17 03:59:57;;;;;;;22.45;7.12;;;;;;;5.56;79.26;101945.55;2164307;82;31751;-61
2021/12/17 04:02:59;;;;;;;22.32;7.90;;;;;;;5.59;79.30;101927.36;2163939;82;34143;-60
2021/12/17 04:06:01;;;;;;;33.40;7.22;;;;;;;5.60;79.20;101929.13;2164091;82;30393;-63
2021/12/17 04:09:04;;;;;;;21.48;6.00;;;;;;;5.59;79.12;101936.66;2198670;80;27774;-61
2021/12/17 04:12:12;;;;;;;25.77;6.25;;;;;;;5.60;79.05;101926.47;2236739;79;29330;-61
2021/12/17 04:15:13;;;;;;;20.48;6.55;;;;;;;5.59;79.00;101922.05;2236424;79;31030;-61
2021/12/17 04:18:15;;;;;;;20.72;5.37;;;;;;;5.57;78.86;101928.70;2217620;79;32963;-61
2021/12/17 04:21:17;;;;;;;18.50;5.83;;;;;;;5.57;78.68;101925.15;2198120;81;29569;-60
2021/12/17 04:24:19;;;;;;;21.02;5.65;;;;;;;5.55;78.64;101934.89;2198319;81;27724;-71
2021/12/17 04:27:21;;;;;;;30.10;6.58;;;;;;;5.54;78.71;101922.06;2205828;79;28055;-70
2021/12/17 04:30:25;;;;;;;23.35;6.67;;;;;;;5.55;78.73;101917.62;2239584;79;31384;-68
2021/12/17 04:33:27;;;;;;;26.68;8.65;;;;;;;5.55;78.64;101910.97;2239575;79;33123;-60
2021/12/17 04:36:32;;;;;;;30.17;7.97;;;;;;;5.55;78.66;101910.97;2239615;79;30762;-63
2021/12/17 04:39:34;;;;;;;20.97;6.92;;;;;;;5.55;78.51;101903.00;2218454;79;27676;-61
2021/12/17 04:46:04;;;;;;;23.20;6.83;;;;;;;5.54;78.40;101891.95;2197985;81;32327;-63
2021/12/17 04:58:53;;;;;;;23.98;5.53;;;;;;;5.51;78.16;101882.66;2197571;81;29893;-63
2021/12/17 05:01:54;;;;;;;20.80;5.85;;;;;;;5.50;78.06;101878.22;2197472;81;31256;-62
2021/12/17 05:04:56;;;;;;;20.32;6.40;;;;;;;5.47;78.03;101867.13;2197386;81;33410;-61
2021/12/17 05:08:03;;;;;;;22.32;5.90;;;;;;;5.42;77.90;101872.47;2197043;81;30845;-61
2021/12/17 05:21:07;;;;;;;32.17;8.88;;;;;;;5.20;77.99;101876.09;2197355;81;33546;-68
2021/12/17 05:24:08;;;;;;;29.25;7.28;;;;;;;5.20;78.15;101879.61;2238379;79;29696;-77
2021/12/17 05:27:10;;;;;;;27.07;6.00;;;;;;;5.21;78.27;101879.19;2238795;79;27657;-62
2021/12/17 05:30:13;;;;;;;24.50;6.95;;;;;;;5.21;78.23;101876.53;2238923;79;29055;-62
2021/12/17 05:33:21;;;;;;;17.48;5.53;;;;;;;5.21;78.20;101888.48;2212438;79;31749;-67
2021/12/17 05:36:22;;;;;;;22.73;5.75;;;;;;;5.21;78.22;101887.16;2198133;81;33036;-79
2021/12/17 05:39:24;;;;;;;25.32;6.30;;;;;;;5.20;78.27;101879.61;2199444;80;30011;-69
2021/12/17 05:42:26;;;;;;;25.23;6.00;;;;;;;5.22;78.36;101878.27;2202004;80;27907;-60
2021/12/17 05:45:33;;;;;;;18.17;5.53;;;;;;;5.24;78.39;101889.78;2201549;80;29899;-67
2021/12/17 05:48:35;;;;;;;21.27;5.28;;;;;;;5.22;78.25;101872.52;2201949;80;31446;-60
2021/12/17 05:51:36;;;;;;;29.77;6.80;;;;;;;5.19;77.97;101880.50;2201493;80;34070;-64
2021/12/17 05:54:38;;;;;;;25.05;6.28;;;;;;;5.16;78.02;101881.82;2200730;80;29635;-66
2021/12/17 05:57:40;;;;;;;21.65;5.62;;;;;;;5.13;78.06;101876.08;2201047;80;27828;-61
2021/12/17 06:00:44;;;;;;;26.55;7.70;;;;;;;5.11;78.00;101883.63;2242709;79;29317;-61
2021/12/17 06:03:46;;;;;;;21.37;5.80;;;;;;;5.06;78.02;101883.60;2242230;79;31838;-74
2021/12/17 06:06:49;;;;;;;21.17;7.17;;;;;;;5.02;78.07;101896.02;2241817;79;33848;-75
2021/12/17 06:09:52;;;;;;;22.22;6.15;;;;;;;4.99;78.19;101901.31;2201755;80;29741;-74
2021/12/17 06:12:54;;;;;;;16.87;5.78;;;;;;;4.98;78.19;101898.67;2200951;80;27698;-60
2021/12/17 06:15:56;;;;;;;28.70;6.45;;;;;;;4.97;78.25;101910.19;2217147;79;29742;-60
2021/12/17 06:18:58;;;;;;;19.92;6.20;;;;;;;4.95;78.26;101903.98;2200538;80;32505;-61
2021/12/17 06:22:00;;;;;;;23.98;5.78;;;;;;;4.95;78.33;101912.86;2200440;80;33915;-68
2021/12/17 06:25:04;;;;;;;22.00;5.70;;;;;;;4.96;78.38;101912.39;2207013;79;30060;-61
2021/12/17 06:28:10;;;;;;;22.20;6.67;;;;;;;4.96;78.34;101901.77;2242815;79;33346;-61
2021/12/17 06:31:12;;;;;;;23.18;6.58;;;;;;;4.96;78.29;101908.41;2242408;79;28799;-66
2021/12/17 06:34:14;;;;;;;20.10;5.83;;;;;;;4.94;78.25;101912.41;2242264;79;31419;-63
2021/12/17 06:37:17;;;;;;;23.00;8.58;;;;;;;4.94;78.26;101924.36;2239560;79;33832;-63
2021/12/17 06:40:19;;;;;;;21.48;6.62;;;;;;;4.95;78.22;101924.80;2201823;79;29684;-68
2021/12/17 06:43:30;;;;;;;25.05;6.78;;;;;;;4.95;78.24;101927.46;2183727;81;28219;-62
2021/12/17 06:46:38;;;;;;;23.98;6.30;;;;;;;4.98;78.24;101939.84;2182530;81;28688;-63
2021/12/17 06:56:42;;;;;;;20.27;7.17;;;;;;;5.05;78.30;101929.64;2188529;80;30828;-62
2021/12/17 07:06:00;;;;;;;17.27;7.05;;;;;;;5.15;78.32;101925.21;2195759;80;33138;-67
2021/12/17 07:22:26;;;;;;;21.65;8.13;;;;;;;5.26;77.96;101936.73;2224219;80;32243;-69
2021/12/17 07:32:19;;;;;;;28.23;6.65;;;;;;;5.37;77.91;101930.52;2183785;81;27654;-70
2021/12/17 07:41:19;;;;;;;26.55;7.25;;;;;;;5.42;77.72;101931.41;2067789;85;33125;-65
2021/12/17 07:44:21;;;;;;;27.48;7.05;;;;;;;5.43;77.66;101922.08;2045462;87;29749;-64
2021/12/17 07:47:23;;;;;;;15.38;6.00;;;;;;;5.48;77.68;101915.42;2045129;87;27722;-61
2021/12/17 07:50:25;;;;;;;19.50;5.30;;;;;;;5.51;77.59;101917.20;2045509;87;28859;-70
2021/12/17 07:53:27;;;;;;;22.98;7.45;;;;;;;5.51;77.36;101919.41;2050317;85;32170;-66
2021/12/17 07:56:31;;;;;;;21.35;8.05;;;;;;;5.51;77.24;101940.67;2045258;87;33207;-64
2021/12/17 07:59:33;;;;;;;18.25;5.62;;;;;;;5.54;77.28;101943.79;2117265;84;29677;-64
2021/12/17 08:02:37;;;;;;;20.40;6.80;;;;;;;5.56;77.26;101945.97;2082240;85;27771;-66
2021/12/17 08:05:39;;;;;;;19.30;6.83;;;;;;;5.57;77.11;101947.31;2083032;85;29639;-65
2021/12/17 08:08:41;;;;;;;20.82;6.08;;;;;;;5.60;77.16;101949.07;2080797;85;32473;-63
2021/12/17 08:11:43;;;;;;;17.92;5.87;;;;;;;5.61;76.90;101949.52;2081415;85;33384;-60
2021/12/17 08:14:45;;;;;;;18.57;6.15;;;;;;;5.61;76.59;101954.83;2081164;85;30856;-78
2021/12/17 08:18:18;;;;;;;22.67;7.72;;;;;;;5.61;76.62;101953.50;2111061;81;27789;-62
2021/12/17 08:27:32;;;;;;;26.77;9.23;;;;;;;5.63;76.66;101962.36;2227287;79;33748;-75
2021/12/17 08:30:37;;;;;;;24.60;10.48;;;;;;;5.64;76.40;101965.47;2226109;79;29641;-61
2021/12/17 08:33:32;;;;;;;40.88;18.12;;;;;;;5.65;76.40;101976.97;2227812;79;28004;-71
2021/12/17 08:36:34;;;;;;;32.93;11.55;;;;;;;5.66;76.53;101978.74;2219828;79;29816;-59
2021/12/17 08:39:35;;;;;;;31.35;10.18;;;;;;;5.67;76.30;101989.40;2187840;81;32362;-71
2021/12/17 08:42:38;;;;;;;18.90;7.03;;;;;;;5.68;76.24;101990.27;2197319;81;34179;-75
2021/12/17 08:45:40;;;;;;;17.95;5.72;;;;;;;5.67;76.00;101993.39;2197597;81;30759;-65
2021/12/17 08:48:42;;;;;;;15.05;6.10;;;;;;;5.68;75.91;101992.92;2197534;81;27749;-64
2021/12/17 08:51:45;;;;;;;19.55;7.35;;;;;;;5.69;76.13;101994.27;2202862;79;29277;-68
2021/12/17 08:54:47;;;;;;;21.80;9.23;;;;;;;5.73;76.10;101992.02;2238911;79;32329;-61
2021/12/17 08:57:48;;;;;;;23.00;11.93;;;;;;;5.75;76.06;101998.69;2237877;79;34195;-62
2021/12/17 09:00:50;;;;;;;23.15;7.83;;;;;;;5.78;75.99;102004.00;2197494;81;30832;-63
2021/12/17 09:03:53;;;;;;;16.77;6.17;;;;;;;5.78;75.91;101989.37;2237747;79;28144;-63
2021/12/17 09:06:56;;;;;;;18.87;6.50;;;;;;;5.82;75.75;101994.23;2238750;79;29901;-75
2021/12/17 09:10:05;;;;;;;22.35;8.23;;;;;;;5.85;75.87;101986.26;2238005;79;32264;-80
2021/12/17 09:13:10;;;;;;;21.52;6.80;;;;;;;5.87;75.86;101980.49;2214686;79;33900;-68
2021/12/17 09:16:16;;;;;;;;;;;;;;;5.94;75.73;101990.20;2203939;79;29674;-76
2021/12/17 09:19:23;;;;;;;;;;;;;;;5.95;75.58;101985.79;2199696;79;27695;-65
2021/12/17 09:22:34;;;;;;;18.15;7.00;;;;;;;5.95;75.39;102000.42;2238781;79;28835;-74
2021/12/17 09:25:45;;;;;;;18.92;5.62;;;;;;;5.92;75.35;101996.88;2198432;81;31825;-73
2021/12/17 09:28:56;;;;;;;16.50;6.80;;;;;;;5.93;75.18;101980.45;2160185;82;29349;-73
2021/12/17 09:32:03;;;;;;;31.20;13.50;;;;;;;5.95;75.03;101972.48;2236919;79;27682;-65
2021/12/17 09:35:11;;;;;;;24.77;10.78;;;;;;;5.94;75.08;101980.89;2238512;79;27959;-63
2021/12/17 09:38:13;;;;;;;15.80;6.35;;;;;;;5.96;75.18;101980.45;2238723;79;29580;-60
2021/12/17 09:41:18;;;;;;;13.38;6.10;;;;;;;5.99;74.81;101983.11;2200305;79;27729;-64
2021/12/17 09:44:20;;;;;;;27.67;9.60;;;;;;;6.01;74.70;101984.45;2239016;79;33927;-61
2021/12/17 09:47:22;;;;;;;25.82;10.32;;;;;;;6.01;74.95;101988.02;2239026;79;30594;-61
2021/12/17 09:50:24;;;;;;;38.08;13.18;;;;;;;6.04;74.75;101981.78;2237979;79;27803;-61
2021/12/17 09:53:26;;;;;;;41.63;15.83;;;;;;;6.05;74.59;101971.59;2238830;79;30040;-61
2021/12/17 09:56:29;;;;;;;45.80;18.35;;;;;;;6.08;74.64;101976.90;2238333;79;32164;-61
2021/12/17 09:59:32;;;;;;;35.83;15.25;;;;;;;6.10;74.65;101961.82;2216330;79;33659;-61
2021/12/17 10:02:34;;;;;;;44.38;16.80;;;;;;;6.18;74.63;101960.00;2233666;79;30826;-63
2021/12/17 10:05:38;;;;;;;32.60;14.15;;;;;;;6.24;74.56;101959.08;2238528;79;28265;-70
2021/12/17 10:08:47;;;;;;;19.87;8.87;;;;;;;6.31;74.48;101978.56;2239146;79;29482;-69
2021/12/17 10:12:06;;;;;;;17.50;6.37;;;;;;;6.35;74.45;101981.66;2191058;79;31377;-61
2021/12/17 10:15:15;;;;;;;18.77;7.08;;;;;;;6.41;74.30;101978.97;2238004;79;33173;-61
2021/12/17 10:18:18;;;;;;;19.48;6.90;;;;;;;6.45;74.32;101984.73;2238326;79;30486;-61
2021/12/17 10:21:24;;;;;;;19.25;6.78;;;;;;;6.49;74.02;101982.92;2206211;79;28305;-61
2021/12/17 10:24:26;;;;;;;27.00;9.55;;;;;;;6.52;73.97;101985.12;2238432;79;29516;-60
2021/12/17 10:27:31;;;;;;;27.90;11.00;;;;;;;6.52;73.53;101972.27;2238580;79;32369;-61
2021/12/17 10:30:38;;;;;;;23.95;12.00;;;;;;;6.56;73.87;101983.77;2238619;79;33008;-61
2021/12/17 10:33:45;;;;;;;23.40;9.68;;;;;;;6.60;73.94;101990.40;2238892;79;29844;-61
2021/12/17 10:36:48;;;;;;;19.48;6.55;;;;;;;6.62;73.62;101991.73;2237814;79;27705;-60
2021/12/17 10:39:49;;;;;;;20.12;7.15;;;;;;;6.63;73.33;101986.81;2190567;81;29658;-61
2021/12/17 10:43:03;;;;;;;25.68;8.00;;;;;;;6.61;73.53;101992.17;2232608;79;31633;-61
2021/12/17 10:49:27;;;;;;;19.57;7.78;;;;;;;6.73;73.38;101973.91;2231527;79;29869;-61
2021/12/17 10:52:40;;;;;;;18.87;5.92;;;;;;;6.80;73.51;101980.08;2232647;79;27642;-61
2021/12/17 10:55:37;;;;;;;20.17;6.60;;;;;;;6.83;73.03;101985.39;2231427;79;28659;-61
2021/12/17 10:58:44;;;;;;;17.25;6.92;;;;;;;6.81;72.79;101975.19;2198710;79;32113;-62
2021/12/17 11:01:55;;;;;;;16.52;6.00;;;;;;;6.85;72.83;101979.61;2186609;81;34178;-61
2021/12/17 11:04:58;;;;;;;20.57;7.90;;;;;;;6.87;72.70;101968.45;2190622;81;30423;-61
2021/12/17 11:08:00;;;;;;;21.33;6.30;;;;;;;6.96;72.66;101963.08;2161964;79;27720;-62
2021/12/17 11:11:12;;;;;;;17.87;6.45;;;;;;;7.01;72.84;101971.03;2232101;79;29511;-62
2021/12/17 11:14:17;;;;;;;14.25;6.37;;;;;;;7.08;72.79;101971.86;2201325;80;31037;-63
2021/12/17 11:17:21;;;;;;;20.82;7.08;;;;;;;7.12;72.72;101967.82;2198034;79;33749;-68
2021/12/17 11:20:33;;;;;;;14.83;7.00;;;;;;;7.17;72.80;101963.81;2191620;81;30603;-64
2021/12/17 11:23:35;;;;;;;18.10;5.78;;;;;;;7.20;72.24;101958.89;2215715;79;27890;-68
2021/12/17 11:26:37;;;;;;;18.35;6.35;;;;;;;7.17;72.01;101953.58;2232101;79;29926;-76
2021/12/17 11:29:41;;;;;;;22.17;6.42;;;;;;;7.15;72.11;101966.47;2205067;79;31619;-72
2021/12/17 11:32:45;;;;;;;21.40;7.85;;;;;;;7.15;72.30;101969.14;2231589;79;33851;-64
2021/12/17 11:35:49;;;;;;;18.02;7.87;;;;;;;7.13;72.08;101964.27;2232724;79;30434;-72
2021/12/17 11:39:27;;;;;;;24.80;9.60;;;;;;;7.18;72.37;101970.91;2232493;79;27528;-65
2021/12/17 11:43:10;;;;;;;20.20;7.08;;;;;;;7.23;72.54;101962.41;2206874;79;29553;-62
2021/12/17 11:46:13;;;;;;;18.87;8.75;;;;;;;7.19;71.71;101961.12;2220953;79;31068;-62
2021/12/17 11:49:15;;;;;;;18.45;6.80;;;;;;;7.18;72.29;101953.59;2236596;79;34151;-74
2021/12/17 11:52:48;;;;;;;18.85;8.08;;;;;;;7.20;71.84;101946.44;2236282;79;31010;-60
2021/12/17 11:56:00;;;;;;;14.00;6.47;;;;;;;7.19;71.91;101942.47;2145308;82;27762;-70
2021/12/17 11:59:03;;;;;;;14.07;6.70;;;;;;;7.22;71.84;101944.64;2125354;83;28810;-61
2021/12/17 12:02:25;;;;;;;12.30;6.17;;;;;;;7.21;71.44;101940.20;2152755;82;28239;-67
2021/12/17 12:05:40;;;;;;;22.82;9.05;;;;;;;7.23;71.47;101935.75;2163640;82;33190;-64
2021/12/17 12:08:50;;;;;;;20.82;7.70;;;;;;;7.29;71.51;101929.47;2164082;82;29325;-62
2021/12/17 12:12:10;;;;;;;15.90;6.62;;;;;;;7.31;71.61;101935.67;2161618;82;27628;-74
2021/12/17 12:15:23;;;;;;;12.90;5.80;;;;;;;7.34;70.94;101938.32;2164048;82;28655;-62
2021/12/17 12:18:39;;;;;;;19.70;7.08;;;;;;;7.29;71.02;101944.13;2164152;82;31956;-60
2021/12/17 12:21:40;;;;;;;;;;;;;;;7.24;71.10;101945.98;2166243;82;33051;-61
2021/12/17 12:24:43;;;;;;;16.60;7.33;;;;;;;7.25;71.25;101943.75;2234158;79;29784;-65
2021/12/17 12:27:46;;;;;;;14.47;5.80;;;;;;;7.18;71.11;101940.69;2212432;79;27723;-60
2021/12/17 12:30:52;;;;;;;15.13;5.42;;;;;;;7.13;71.03;101930.95;2239338;79;28714;-60
2021/12/17 12:34:13;;;;;;;22.22;8.48;;;;;;;7.01;70.67;101942.19;2212218;79;31022;-60
2021/12/17 12:37:26;;;;;;;23.75;9.60;;;;;;;6.96;71.10;101937.77;2222189;79;32981;-61
2021/12/17 12:40:34;;;;;;;17.35;7.60;;;;;;;6.92;70.95;101937.35;2238308;79;30975;-72
2021/12/17 12:43:36;;;;;;;16.60;6.47;;;;;;;6.91;71.24;101932.05;2199497;79;27615;-63
2021/12/17 12:46:55;;;;;;;15.28;5.78;;;;;;;6.92;71.22;101930.69;2238604;79;28692;-61
2021/12/17 12:50:11;;;;;;;13.93;6.22;;;;;;;6.93;71.26;101936.45;2238125;79;31875;-62
2021/12/17 12:53:15;;;;;;;16.77;5.80;;;;;;;6.91;70.97;101932.92;2237951;79;34150;-61
2021/12/17 12:56:19;;;;;;;10.90;4.65;;;;;;;6.82;70.73;101926.34;2236358;79;30851;-61
2021/12/17 12:59:22;;;;;;;9.80;4.35;;;;;;;6.75;70.78;101920.18;2238532;79;27624;-61
2021/12/17 13:02:26;;;;;;;11.35;4.85;;;;;;;6.71;70.76;101920.19;2238474;79;52775;-60
2021/12/17 13:05:28;;;;;;;13.30;5.37;;;;;;;6.68;70.71;101919.77;2238027;79;31820;-60
2021/12/17 13:08:31;;;;;;;15.48;5.97;;;;;;;6.66;70.75;101926.45;2199058;81;34085;-64
2021/12/17 13:11:39;;;;;;;16.80;7.17;;;;;;;6.64;70.76;101922.02;2199039;81;30838;-71
2021/12/17 13:14:43;;;;;;;16.65;7.20;;;;;;;6.61;70.92;101928.72;2197427;81;27694;-71
2021/12/17 13:24:36;;;;;;;13.98;5.50;;;;;;;6.36;70.69;101921.77;2238837;79;33809;-77
2021/12/17 13:27:37;;;;;;;14.35;7.12;;;;;;;6.30;70.43;101919.13;2238563;79;30453;-62
2021/12/17 13:30:41;;;;;;;19.80;9.90;;;;;;;6.21;70.34;101915.17;2238630;79;27715;-65
2021/12/17 13:33:42;;;;;;;24.10;11.70;;;;;;;6.13;70.51;101920.53;2197910;81;28573;-62
2021/12/17 13:36:56;;;;;;;25.45;10.60;;;;;;;6.08;70.62;101919.70;2160462;82;31718;-69
2021/12/17 13:40:05;;;;;;;19.75;8.05;;;;;;;6.05;70.83;101926.36;2217158;78;34920;-71
2021/12/17 13:43:07;;;;;;;16.40;7.75;;;;;;;5.99;70.98;101935.65;2197098;81;29677;-63
2021/12/17 13:46:09;;;;;;;24.12;8.75;;;;;;;5.98;71.22;101929.89;2197857;81;27711;-79
2021/12/17 13:49:11;;;;;;;17.07;7.20;;;;;;;5.97;71.46;101936.09;2206719;79;29364;-74
2021/12/17 13:52:13;;;;;;;20.35;7.47;;;;;;;5.96;71.73;101941.87;2238655;79;32257;-61
2021/12/17 13:55:27;;;;;;;14.95;5.87;;;;;;;5.95;71.57;101940.11;2191074;81;33011;-67
2021/12/17 13:58:32;;;;;;;19.42;6.10;;;;;;;5.91;71.62;101940.57;2238727;79;30499;-61
2021/12/17 14:01:36;;;;;;;12.70;4.97;;;;;;;5.88;71.72;101940.58;2202006;79;27639;-62
2021/12/17 14:04:40;;;;;;;12.23;4.87;;;;;;;5.84;71.55;101938.81;2197795;81;28832;-61
2021/12/17 14:07:44;;;;;;;17.98;6.47;;;;;;;5.80;71.59;101945.02;2197536;81;31197;-61
2021/12/17 14:10:48;;;;;;;13.18;4.37;;;;;;;5.79;71.85;101953.92;2221793;79;34185;-61
2021/12/17 14:13:50;;;;;;;12.82;4.47;;;;;;;5.75;71.75;101954.81;2238796;79;29929;-61
2021/12/17 14:17:01;;;;;;;13.93;4.65;;;;;;;5.70;71.75;101961.91;2238760;79;27658;-61
2021/12/17 14:20:23;;;;;;;12.33;5.25;;;;;;;5.66;71.70;101957.05;2238677;79;28663;-61
2021/12/17 14:23:28;;;;;;;17.90;6.50;;;;;;;5.61;71.95;101961.05;2238961;79;30982;-60
2021/12/17 14:26:32;;;;;;;17.57;7.45;;;;;;;5.58;71.91;101964.14;2210365;79;33789;-61
2021/12/17 14:29:38;;;;;;;30.17;10.40;;;;;;;5.54;72.04;101961.06;2199475;80;29658;-60
2021/12/17 14:32:43;;;;;;;19.20;7.37;;;;;;;5.50;72.11;101961.49;2199464;80;27713;-60
2021/12/17 14:36:04;;;;;;;17.73;8.03;;;;;;;5.49;72.20;101963.70;2199292;80;28649;-61
2021/12/17 14:39:18;;;;;;;17.73;6.37;;;;;;;5.45;72.17;101965.95;2205192;79;30401;-60
2021/12/17 14:42:34;;;;;;;11.15;5.95;;;;;;;5.41;72.23;101963.72;2237307;79;34348;-61
2021/12/17 14:45:42;;;;;;;16.27;6.55;;;;;;;5.37;72.22;101956.66;2228801;79;29674;-60
2021/12/17 14:48:50;;;;;;;18.07;7.20;;;;;;;5.34;72.27;101952.67;2194230;81;27753;-60
2021/12/17 15:01:51;;;;;;;19.95;6.58;;;;;;;5.08;72.54;101953.55;2236608;79;30801;-61
2021/12/17 15:04:41;;;;;;;19.73;7.30;;;;;;;5.04;72.64;101965.09;2234469;79;27693;-61
2021/12/17 15:07:43;;;;;;;13.40;5.80;;;;;;;4.99;72.78;101961.08;2207673;79;29900;-61
2021/12/17 15:10:46;;;;;;;22.52;7.15;;;;;;;4.95;72.79;101963.31;2197729;81;32250;-61
2021/12/17 15:13:47;;;;;;;25.25;11.18;;;;;;;4.92;72.86;101973.03;2198349;81;34130;-63
2021/12/17 15:16:50;;;;;;;27.80;12.25;;;;;;;4.86;72.95;101980.13;2198017;81;30125;-62
2021/12/17 15:19:52;;;;;;;20.37;11.22;;;;;;;4.81;73.00;101975.23;2198577;81;27724;-61
2021/12/17 15:22:56;;;;;;;20.35;9.48;;;;;;;4.78;73.10;101969.05;2198012;79;29437;-62
2021/12/17 15:25:58;;;;;;;22.10;10.32;;;;;;;4.74;73.21;101957.97;2198080;81;31884;-61
2021/12/17 15:29:00;;;;;;;17.27;9.00;;;;;;;4.70;73.28;101963.27;2197924;80;33522;-62
2021/12/17 15:32:03;;;;;;;17.95;8.78;;;;;;;4.67;73.32;101970.35;2197866;81;30823;-62
2021/12/17 15:35:07;;;;;;;27.95;10.08;;;;;;;4.62;73.39;101974.33;2228411;79;27658;-64
2021/12/17 15:38:10;;;;;;;23.57;11.88;;;;;;;4.59;73.45;101957.48;2239602;79;28647;-64
2021/12/17 15:41:12;;;;;;;39.95;22.85;;;;;;;4.53;73.49;101954.38;2239700;79;31671;-65
2021/12/17 15:44:14;;;;;;;45.00;22.17;;;;;;;4.47;73.54;101963.68;2198129;79;32972;-65
2021/12/17 15:47:16;;;;;;;31.52;14.55;;;;;;;4.42;73.64;101966.30;2170351;82;30851;-63
2021/12/17 15:50:18;;;;;;;29.02;12.25;;;;;;;4.36;73.76;101975.58;2182536;80;27704;-62
2021/12/17 15:53:20;;;;;;;29.42;12.58;;;;;;;4.31;73.87;101967.58;2209794;80;28630;-67
2021/12/17 15:56:23;;;;;;;31.00;11.70;;;;;;;4.27;73.97;101971.13;2211017;80;31012;-63
2021/12/17 15:59:24;;;;;;;25.25;11.83;;;;;;;4.25;74.11;101975.54;2210609;80;33193;-64
2021/12/17 16:02:26;;;;;;;29.72;12.50;;;;;;;4.24;74.16;101973.77;2210910;79;29690;-64
2021/12/17 16:05:30;;;;;;;47.17;19.90;;;;;;;4.24;74.25;101976.42;2211458;79;27674;-66
2021/12/17 16:08:35;;;;;;;28.90;12.93;;;;;;;4.23;74.30;101968.88;2211177;80;29828;-65
2021/12/17 16:11:59;;;;;;;25.15;12.37;;;;;;;4.24;74.40;101967.13;2202244;80;31767;-62
2021/12/17 16:21:21;;;;;;;32.13;13.58;;;;;;;4.13;74.50;101952.95;2184921;80;28610;-73
2021/12/17 16:24:25;;;;;;;27.07;12.05;;;;;;;4.07;74.48;101949.39;2210974;79;28416;-62
2021/12/17 16:27:26;;;;;;;28.02;11.75;;;;;;;4.01;74.51;101957.76;2181122;80;31917;-61
2021/12/17 16:30:30;;;;;;;25.50;10.53;;;;;;;3.94;74.64;101964.80;2170103;82;33530;-61
2021/12/17 16:33:34;;;;;;;25.55;11.90;;;;;;;3.89;74.69;101966.53;2169088;81;30516;-65
2021/12/17 16:36:38;;;;;;;21.50;10.50;;;;;;;3.82;74.79;101972.25;2184018;80;27475;-62
2021/12/17 16:39:40;;;;;;;23.75;8.50;;;;;;;3.77;74.93;101980.18;2197943;79;28634;-61
2021/12/17 16:42:42;;;;;;;23.15;12.00;;;;;;;3.75;75.09;101991.20;2240708;79;31025;-62
2021/12/17 16:46:02;;;;;;;29.77;13.38;;;;;;;3.74;75.34;101986.78;2223944;80;33472;-61
2021/12/17 16:48:50;;;;;;;28.98;13.20;;;;;;;3.72;75.28;101991.19;2188574;80;30037;-61
2021/12/17 16:51:52;;;;;;;29.18;13.13;;;;;;;3.70;75.36;101989.41;2223504;80;27630;-60
2021/12/17 16:54:56;;;;;;;24.50;11.83;;;;;;;3.69;75.37;101994.27;2224119;80;29970;-61
2021/12/17 16:58:00;;;;;;;26.42;11.95;;;;;;;3.67;75.50;101999.53;2223737;80;27732;-61
2021/12/17 17:01:03;;;;;;;31.73;13.98;;;;;;;3.65;75.58;101993.33;2189629;79;34290;-60
2021/12/17 17:04:12;;;;;;;26.87;12.35;;;;;;;3.67;75.63;102003.97;2183400;81;29693;-61
2021/12/17 17:07:14;;;;;;;31.77;12.75;;;;;;;3.67;75.64;101998.20;2184047;81;27692;-61
2021/12/17 17:10:16;;;;;;;31.00;12.98;;;;;;;3.66;75.77;102005.71;2199482;80;29584;-61
2021/12/17 17:13:24;;;;;;;25.48;13.43;;;;;;;3.67;75.76;102010.14;2224558;80;31169;-61